createdAt,value
2023-03-08T00:00:22.458Z,6.41
2023-03-08T00:05:24.134Z,6.34
2023-03-08T00:10:25.670Z,6.31
2023-03-08T00:15:27.180Z,6.25
2023-03-08T00:20:28.642Z,6.16
2023-03-08T00:25:32.304Z,6.16
2023-03-08T00:30:33.971Z,6.07
2023-03-08T00:35:35.441Z,5.91
2023-03-08T00:40:36.907Z,5.78
2023-03-08T00:45:38.332Z,5.73
2023-03-08T00:50:39.787Z,5.63
2023-03-08T00:55:52.989Z,5.58
2023-03-08T01:00:55.040Z,5.51
2023-03-08T01:05:58.179Z,5.49
2023-03-08T01:11:00.670Z,5.42
2023-03-08T01:16:03.195Z,5.40
2023-03-08T01:21:05.101Z,5.33
2023-03-08T01:26:12.453Z,5.25
2023-03-08T01:31:17.539Z,5.21
2023-03-08T01:36:21.766Z,5.13
2023-03-08T01:41:27.387Z,5.06
2023-03-08T01:46:33.904Z,5.07
2023-03-08T01:51:42.226Z,5.03
2023-03-08T01:56:46.489Z,4.99
2023-03-08T02:01:51.209Z,4.94
2023-03-08T02:06:52.865Z,4.96
2023-03-08T02:11:58.018Z,5.11
2023-03-08T02:16:59.502Z,5.23
2023-03-08T02:22:08.961Z,5.32
2023-03-08T02:27:25.018Z,5.40
2023-03-08T02:32:26.477Z,5.46
2023-03-08T02:37:28.159Z,5.55
2023-03-08T02:42:29.627Z,5.57
2023-03-08T02:47:31.070Z,5.59
2023-03-08T02:52:32.515Z,5.63
2023-03-08T02:57:34.000Z,5.62
2023-03-08T03:02:36.005Z,5.55
2023-03-08T03:07:39.557Z,5.42
2023-03-08T03:12:41.166Z,5.32
2023-03-08T03:17:42.613Z,5.22
2023-03-08T03:22:44.907Z,5.17
2023-03-08T03:27:47.081Z,5.08
2023-03-08T03:32:48.661Z,5.08
2023-03-08T03:37:50.315Z,5.11
2023-03-08T03:42:51.799Z,5.15
2023-03-08T03:47:53.242Z,5.17
2023-03-08T03:52:54.719Z,5.24
2023-03-08T03:57:56.468Z,5.24
2023-03-08T04:02:57.973Z,5.27
2023-03-08T04:07:59.690Z,5.24
2023-03-08T04:13:01.345Z,5.28
2023-03-08T04:18:02.874Z,5.30
2023-03-08T04:23:04.314Z,5.34
2023-03-08T04:28:05.726Z,5.34
2023-03-08T04:33:07.172Z,5.37
2023-03-08T04:38:08.668Z,5.37
2023-03-08T04:43:10.126Z,5.39
2023-03-08T04:48:12.031Z,5.42
2023-03-08T04:53:13.470Z,5.47
2023-03-08T04:58:14.999Z,5.47
2023-03-08T05:03:16.788Z,5.47
2023-03-08T05:08:19.455Z,5.48
2023-03-08T05:13:21.000Z,5.50
2023-03-08T05:18:22.583Z,5.49
2023-03-08T05:23:26.300Z,5.48
2023-03-08T05:28:32.907Z,5.51
2023-03-08T05:33:35.745Z,5.58
2023-03-08T05:38:37.192Z,5.64
2023-03-08T05:43:38.689Z,5.62
2023-03-08T05:48:41.050Z,5.60
2023-03-08T05:53:42.886Z,5.39
2023-03-08T05:58:47.369Z,5.21
2023-03-08T06:03:52.061Z,5.09
2023-03-08T06:08:54.200Z,5.08
2023-03-08T06:13:55.829Z,5.13
2023-03-08T06:18:57.301Z,5.24
2023-03-08T06:23:58.735Z,5.34
2023-03-08T06:29:00.323Z,5.46
2023-03-08T06:34:01.983Z,5.58
2023-03-08T06:39:03.637Z,5.50
2023-03-08T06:44:05.243Z,5.51
2023-03-08T06:49:07.852Z,5.50
2023-03-08T06:54:09.346Z,5.41
2023-03-08T06:59:11.955Z,5.30
2023-03-08T07:04:13.425Z,5.14
2023-03-08T07:09:14.951Z,5.07
2023-03-08T07:14:16.441Z,5.05
2023-03-08T07:19:17.916Z,5.01
2023-03-08T07:24:19.365Z,5.05
2023-03-08T07:29:20.864Z,5.14
2023-03-08T07:34:22.342Z,5.23
2023-03-08T07:39:23.819Z,5.20
2023-03-08T07:44:25.284Z,4.96
2023-03-08T07:49:26.749Z,4.66
2023-03-08T07:54:28.460Z,4.65
2023-03-08T07:59:30.335Z,4.70
2023-03-08T08:04:31.820Z,4.56
2023-03-08T08:09:33.942Z,4.51
2023-03-08T08:14:35.584Z,4.73
2023-03-08T08:19:37.975Z,4.74
2023-03-08T08:24:39.437Z,4.60
2023-03-08T08:29:40.950Z,4.57
2023-03-08T08:34:42.623Z,4.51
2023-03-08T08:39:44.235Z,4.38
2023-03-08T08:44:45.760Z,4.24
2023-03-08T08:49:47.738Z,4.37
2023-03-08T08:54:49.230Z,4.56
2023-03-08T08:59:50.924Z,4.74
2023-03-08T09:04:52.465Z,4.75
2023-03-08T09:09:54.992Z,4.84
2023-03-08T09:14:56.657Z,5.07
2023-03-08T09:19:59.223Z,5.27
2023-03-08T09:25:00.727Z,5.39
2023-03-08T09:30:02.607Z,5.63
2023-03-08T09:35:05.758Z,5.80
2023-03-08T09:40:11.293Z,6.07
2023-03-08T09:45:28.231Z,6.15
2023-03-08T09:50:33.987Z,6.07
2023-03-08T09:55:43.259Z,6.16
2023-03-08T10:00:46.801Z,6.31
2023-03-08T10:05:53.767Z,6.40
2023-03-08T10:11:07.726Z,6.47
2023-03-08T10:16:27.424Z,6.45
2023-03-08T10:21:32.893Z,6.43
2023-03-08T10:26:35.242Z,6.43
2023-03-08T10:31:36.832Z,6.36
2023-03-08T10:37:08.808Z,6.44
2023-03-08T10:42:16.167Z,6.55
2023-03-08T10:47:30.132Z,6.63
2023-03-08T10:52:32.103Z,6.60
2023-03-08T10:57:34.076Z,6.72
2023-03-08T11:02:35.569Z,6.98
2023-03-08T11:07:37.508Z,7.89
2023-03-08T11:12:39.615Z,8.51
2023-03-08T11:18:06.335Z,9.05
2023-03-08T11:23:32.453Z,9.34
2023-03-08T11:28:56.772Z,9.51
2023-03-08T11:34:43.173Z,9.79
2023-03-08T11:40:26.447Z,10.00
2023-03-08T11:45:44.375Z,10.28
2023-03-08T11:50:49.105Z,10.51
2023-03-08T11:56:12.145Z,10.81
2023-03-08T12:01:24.164Z,10.93
2023-03-08T12:06:56.547Z,11.02
2023-03-08T12:11:58.410Z,11.18
2023-03-08T12:17:09.161Z,11.26
2023-03-08T12:22:31.288Z,11.35
2023-03-08T12:27:44.720Z,11.43
2023-03-08T12:32:48.362Z,11.57
2023-03-08T12:38:03.863Z,11.71
2023-03-08T12:43:14.856Z,11.70
2023-03-08T12:48:21.956Z,11.72
2023-03-08T12:53:26.480Z,11.83
2023-03-08T12:58:29.102Z,11.95
2023-03-08T13:03:42.397Z,12.03
2023-03-08T13:08:53.172Z,12.10
2023-03-08T13:14:01.564Z,12.18
2023-03-08T13:19:17.827Z,12.15
2023-03-08T13:24:37.060Z,12.12
2023-03-08T13:29:41.730Z,12.14
2023-03-08T13:34:46.376Z,12.10
2023-03-08T13:39:59.520Z,11.92
2023-03-08T13:45:16.292Z,11.71
2023-03-08T13:50:21.549Z,11.64
2023-03-08T13:55:34.865Z,11.63
2023-03-08T14:00:36.841Z,11.61
2023-03-08T14:05:43.711Z,11.73
2023-03-08T14:10:51.884Z,11.64
2023-03-08T14:16:07.821Z,11.58
2023-03-08T14:21:17.961Z,11.58
2023-03-08T14:27:02.466Z,11.52
2023-03-08T14:32:13.225Z,11.53
2023-03-08T14:37:26.035Z,11.60
2023-03-08T14:42:35.916Z,11.77
2023-03-08T14:47:37.707Z,11.80
2023-03-08T14:52:45.667Z,11.89
2023-03-08T14:57:47.864Z,11.97
2023-03-08T15:02:49.892Z,12.01
2023-03-08T15:07:52.405Z,12.04
2023-03-08T15:12:54.010Z,12.09
2023-03-08T15:17:55.608Z,12.19
2023-03-08T15:23:00.699Z,12.27
2023-03-08T15:28:02.650Z,12.31
2023-03-08T15:33:05.505Z,12.49
2023-03-08T15:38:07.423Z,12.70
2023-03-08T15:43:09.836Z,12.78
2023-03-08T15:48:17.059Z,12.77
2023-03-08T15:53:29.597Z,12.77
2023-03-08T15:58:36.093Z,12.79
2023-03-08T16:03:38.185Z,12.85
2023-03-08T16:08:40.931Z,12.83
2023-03-08T16:13:42.621Z,12.82
2023-03-08T16:18:44.680Z,12.85
2023-03-08T16:23:46.145Z,12.89
2023-03-08T16:28:48.509Z,12.94
2023-03-08T16:33:50.027Z,13.01
2023-03-08T16:38:52.234Z,13.10
2023-03-08T16:43:55.889Z,13.13
2023-03-08T16:48:57.601Z,13.22
2023-03-08T16:53:59.968Z,13.28
2023-03-08T16:59:02.224Z,13.29
2023-03-08T17:04:04.236Z,13.28
2023-03-08T17:09:06.585Z,13.23
2023-03-08T17:14:12.802Z,13.18
2023-03-08T17:19:14.522Z,13.25
2023-03-08T17:24:16.140Z,13.19
2023-03-08T17:29:18.168Z,13.17
2023-03-08T17:34:23.616Z,13.21
2023-03-08T17:39:25.686Z,13.21
2023-03-08T17:44:27.127Z,13.19
2023-03-08T17:49:28.665Z,13.16
2023-03-08T17:54:30.772Z,13.15
2023-03-08T17:59:32.191Z,13.02
2023-03-08T18:04:34.811Z,12.75
2023-03-08T18:09:36.567Z,12.65
2023-03-08T18:14:40.112Z,12.64
2023-03-08T18:19:43.067Z,12.65
2023-03-08T18:24:44.670Z,12.58
2023-03-08T18:29:46.116Z,12.26
2023-03-08T18:34:48.196Z,12.21
2023-03-08T18:39:54.510Z,12.16
2023-03-08T18:44:56.531Z,12.00
2023-03-08T18:49:58.367Z,12.03
2023-03-08T18:54:59.880Z,12.20
2023-03-08T19:00:06.314Z,12.17
2023-03-08T19:05:08.247Z,11.92
2023-03-08T19:10:14.917Z,11.81
2023-03-08T19:15:16.523Z,11.73
2023-03-08T19:20:18.061Z,11.65
2023-03-08T19:25:20.869Z,11.54
2023-03-08T19:30:24.338Z,11.49
2023-03-08T19:35:25.791Z,11.41
2023-03-08T19:40:27.274Z,11.35
2023-03-08T19:45:28.789Z,11.30
2023-03-08T19:50:30.234Z,11.27
2023-03-08T19:55:31.787Z,11.16
2023-03-08T20:00:33.241Z,11.14
2023-03-08T20:05:48.478Z,11.14
2023-03-08T20:10:50.261Z,11.10
2023-03-08T20:15:51.797Z,11.10
2023-03-08T20:20:53.320Z,11.10
2023-03-08T20:25:54.822Z,11.04
2023-03-08T20:30:56.345Z,11.04
2023-03-08T20:35:59.298Z,11.01
2023-03-08T20:41:12.092Z,11.05
2023-03-08T20:46:16.366Z,11.12
2023-03-08T20:51:20.244Z,11.09
2023-03-08T20:56:23.932Z,11.06
2023-03-08T21:01:31.453Z,11.07
2023-03-08T21:06:34.038Z,11.17
2023-03-08T21:11:35.712Z,11.27
2023-03-08T21:16:37.847Z,11.30
2023-03-08T21:21:42.901Z,11.25
2023-03-08T21:26:45.719Z,11.23
2023-03-08T21:31:52.529Z,11.22
2023-03-08T21:36:54.066Z,11.26
2023-03-08T21:41:57.127Z,11.25
2023-03-08T21:46:59.036Z,11.27
2023-03-08T21:52:01.857Z,11.30
2023-03-08T21:57:03.768Z,11.32
2023-03-08T22:02:05.552Z,11.34
2023-03-08T22:07:07.408Z,11.41
2023-03-08T22:12:08.935Z,11.45
2023-03-08T22:17:10.375Z,11.47
2023-03-08T22:22:11.871Z,11.51
2023-03-08T22:27:14.240Z,11.52
2023-03-08T22:32:16.440Z,11.53
2023-03-08T22:37:17.948Z,11.57
2023-03-08T22:42:19.404Z,11.57
2023-03-08T22:47:21.058Z,11.57
2023-03-08T22:52:23.229Z,11.56
2023-03-08T22:57:25.252Z,11.58
2023-03-08T23:02:28.445Z,11.63
2023-03-08T23:07:30.060Z,11.77
2023-03-08T23:12:31.497Z,11.82
2023-03-08T23:17:33.181Z,11.82
2023-03-08T23:22:34.834Z,11.81
2023-03-08T23:27:36.884Z,11.80
2023-03-08T23:32:38.425Z,11.77
2023-03-08T23:37:40.458Z,11.67
2023-03-08T23:42:42.217Z,11.57
2023-03-08T23:47:43.741Z,11.40
2023-03-08T23:52:45.901Z,11.34
2023-03-08T23:57:47.590Z,11.02
